Time;durP1;ratioP1;P1;durP2;ratioP2;P2;SDS_P1;SDS_P2;PMS_P1;PMS_P2;Temp;Humidity;BMP_temperature;BMP_pressure;BME280_temperature;BME280_humidity;BME280_pressure;Samples;Min_cycle;Max_cycle;Signal;HPM_P1;HPM_P2
2021/03/14 00:01:37;;;;;;;5.00;2.50;;;;;;;4.61;73.68;98497.06;5049226;28;20274;-76
2021/03/14 00:04:04;;;;;;;5.70;2.70;;;;;;;4.65;73.28;98497.84;5051153;28;20202;-75
2021/03/14 00:06:30;;;;;;;4.33;2.57;;;;;;;4.65;73.92;98501.28;5048474;28;20228;-74
2021/03/14 00:08:56;;;;;;;3.83;2.40;;;;;;;4.66;72.88;98515.91;5050392;28;20697;-75
2021/03/14 00:11:21;;;;;;;4.13;2.60;;;;;;;4.71;73.26;98508.03;5048048;28;20224;-75
2021/03/14 00:13:47;;;;;;;6.40;2.60;;;;;;;4.66;73.94;98508.16;5050266;28;20232;-75
2021/03/14 00:16:13;;;;;;;6.00;2.67;;;;;;;4.63;73.71;98509.97;5049575;28;20295;-75
2021/03/14 00:18:41;;;;;;;3.23;2.13;;;;;;;4.67;74.01;98527.94;5048144;28;20290;-75
2021/03/14 00:21:10;;;;;;;3.70;2.00;;;;;;;4.69;73.51;98533.91;5048689;28;20223;-75
2021/03/14 00:23:36;;;;;;;4.33;2.30;;;;;;;4.71;73.92;98534.72;5047547;28;20206;-75
2021/03/14 00:26:04;;;;;;;3.70;2.20;;;;;;;4.68;74.18;98546.88;5050391;28;20194;-76
2021/03/14 00:28:30;;;;;;;3.40;2.50;;;;;;;4.63;74.51;98551.31;5046620;28;20277;-76
2021/03/14 00:30:56;;;;;;;6.93;2.90;;;;;;;4.63;74.39;98531.47;5049889;28;20671;-76
2021/03/14 00:33:22;;;;;;;5.27;2.30;;;;;;;4.66;74.55;98548.63;5050013;28;20203;-75
2021/03/14 00:35:48;;;;;;;4.83;2.63;;;;;;;4.66;74.04;98556.38;5050456;28;20213;-76
2021/03/14 00:38:15;;;;;;;5.57;2.83;;;;;;;4.67;74.36;98553.78;5046000;28;20566;-75
2021/03/14 00:40:41;;;;;;;4.43;2.47;;;;;;;4.65;74.12;98544.38;5050415;28;20199;-75
2021/03/14 00:43:08;;;;;;;3.50;2.50;;;;;;;4.62;74.68;98557.34;5027753;28;535624;-75
2021/03/14 00:45:36;;;;;;;3.00;2.40;;;;;;;4.62;74.25;98558.22;5051123;28;20275;-75
2021/03/14 00:48:05;;;;;;;4.90;2.03;;;;;;;4.69;74.74;98564.91;5050541;28;20216;-76
2021/03/14 00:50:32;;;;;;;6.07;2.47;;;;;;;4.69;74.05;98569.25;5050851;28;20229;-76
2021/03/14 00:52:58;;;;;;;4.87;2.37;;;;;;;4.66;74.66;98577.94;5050806;28;20229;-76
2021/03/14 00:55:25;;;;;;;5.27;2.50;;;;;;;4.69;74.35;98579.56;5051155;28;20199;-75
2021/03/14 00:57:51;;;;;;;5.27;2.60;;;;;;;4.74;74.28;98576.00;5050759;28;20213;-76
2021/03/14 01:00:18;;;;;;;2.50;2.23;;;;;;;4.73;74.42;98581.19;5050555;28;20197;-75
2021/03/14 01:02:43;;;;;;;5.30;3.43;;;;;;;4.76;74.26;98583.72;5050602;28;20255;-76
2021/03/14 01:05:11;;;;;;;5.70;2.40;;;;;;;4.74;74.38;98585.50;5050813;28;20204;-75
2021/03/14 01:07:36;;;;;;;6.10;2.43;;;;;;;4.72;74.72;98585.53;5050581;28;20611;-75
2021/03/14 01:10:04;;;;;;;6.33;2.90;;;;;;;4.76;75.19;98602.66;5050881;28;20238;-75
2021/03/14 01:12:31;;;;;;;5.03;2.30;;;;;;;4.81;74.93;98592.19;5049535;28;20254;-76
2021/03/14 01:14:57;;;;;;;7.23;3.10;;;;;;;4.84;74.32;98614.53;5051450;28;20210;-75
2021/03/14 01:17:22;;;;;;;4.67;2.73;;;;;;;4.80;73.86;98593.09;5052975;28;20686;-74
2021/03/14 01:19:48;;;;;;;4.23;2.57;;;;;;;4.75;74.02;98595.78;5050438;28;20203;-76
2021/03/14 01:22:14;;;;;;;3.80;2.53;;;;;;;4.75;73.91;98602.69;5049506;28;20572;-76
2021/03/14 01:24:40;;;;;;;4.47;2.90;;;;;;;4.77;74.18;98611.25;5048501;28;20197;-76
2021/03/14 01:27:07;;;;;;;4.50;2.67;;;;;;;4.81;74.18;98614.59;5050395;28;20202;-76
2021/03/14 01:29:33;;;;;;;7.40;2.80;;;;;;;4.84;73.47;98610.22;5050535;28;20225;-76
2021/03/14 01:31:59;;;;;;;4.00;2.43;;;;;;;4.83;73.21;98629.19;5048727;28;20229;-75
2021/03/14 01:34:25;;;;;;;3.50;2.53;;;;;;;4.81;74.12;98623.19;5054300;28;20202;-75
2021/03/14 01:36:52;;;;;;;5.03;2.60;;;;;;;4.81;73.60;98615.44;5052330;28;20259;-76
2021/03/14 01:39:18;;;;;;;6.80;2.80;;;;;;;4.80;73.59;98628.41;5054453;28;20204;-75
2021/03/14 01:41:44;;;;;;;6.60;2.73;;;;;;;4.87;73.76;98642.88;5053519;28;20246;-75
2021/03/14 01:44:10;;;;;;;5.10;2.53;;;;;;;4.84;73.61;98625.72;5054299;28;20193;-76
2021/03/14 01:46:37;;;;;;;4.70;2.67;;;;;;;4.85;73.46;98645.50;5053870;28;20690;-75
2021/03/14 01:49:03;;;;;;;5.83;2.90;;;;;;;4.87;73.59;98646.31;5053750;28;20220;-76
2021/03/14 01:51:31;;;;;;;4.10;2.60;;;;;;;4.90;73.95;98635.06;5050966;28;20230;-75
2021/03/14 01:53:58;;;;;;;5.57;3.00;;;;;;;4.87;73.78;98638.56;5054423;28;20194;-76
2021/03/14 01:56:24;;;;;;;3.93;2.70;;;;;;;4.88;73.62;98666.13;5051274;28;20201;-75
2021/03/14 01:58:51;;;;;;;4.57;2.60;;;;;;;4.82;74.69;98655.94;5053219;28;20195;-76
2021/03/14 02:01:17;;;;;;;4.43;2.83;;;;;;;4.80;74.08;98641.34;5053358;28;20714;-76
2021/03/14 02:03:44;;;;;;;5.97;2.87;;;;;;;4.83;74.34;98639.53;5054013;28;20210;-75
2021/03/14 02:06:10;;;;;;;4.27;2.60;;;;;;;4.84;74.07;98645.56;5053375;28;20224;-75
2021/03/14 02:08:36;;;;;;;5.87;2.77;;;;;;;4.83;75.00;98664.53;5050764;28;20198;-75
2021/03/14 02:11:03;;;;;;;3.10;2.47;;;;;;;4.82;74.06;98660.25;5044849;28;20223;-76
2021/03/14 02:13:33;;;;;;;4.93;2.63;;;;;;;4.84;74.19;98669.66;5053697;28;20851;-76
2021/03/14 02:16:05;;;;;;;8.43;2.80;;;;;;;4.89;73.03;98664.38;5052496;28;20611;-75
2021/03/14 02:18:34;;;;;;;5.67;2.83;;;;;;;4.81;74.59;98674.06;5053870;28;20255;-76
2021/03/14 02:21:01;;;;;;;3.67;2.50;;;;;;;4.84;74.30;98677.44;5052322;28;20201;-76
2021/03/14 02:23:34;;;;;;;5.33;2.80;;;;;;;4.84;74.28;98682.59;5053009;28;20675;-76
2021/03/14 02:26:03;;;;;;;3.87;2.57;;;;;;;4.85;74.02;98684.28;5051740;28;20560;-75
2021/03/14 02:28:31;;;;;;;3.27;2.60;;;;;;;4.85;73.46;98683.44;5053216;28;20580;-76
2021/03/14 02:30:57;;;;;;;9.13;3.53;;;;;;;4.84;73.56;98692.94;5052663;28;20223;-75
2021/03/14 02:33:26;;;;;;;4.23;2.73;;;;;;;4.80;74.16;98696.47;5054370;28;20202;-76
2021/03/14 02:35:55;;;;;;;2.53;2.13;;;;;;;4.76;74.78;98694.84;5057046;28;20205;-75
2021/03/14 02:38:21;;;;;;;7.33;2.93;;;;;;;4.77;74.45;98692.22;5051885;28;20215;-75
2021/03/14 02:40:48;;;;;;;4.67;3.10;;;;;;;4.74;73.89;98694.88;5054766;28;20679;-75
2021/03/14 02:43:15;;;;;;;5.67;2.70;;;;;;;4.73;74.50;98693.16;5050835;28;20343;-74
2021/03/14 02:45:42;;;;;;;3.50;2.50;;;;;;;4.71;74.77;98689.78;5052286;28;20652;-75
2021/03/14 02:48:10;;;;;;;4.07;2.53;;;;;;;4.69;74.50;98696.72;5049715;28;20195;-76
2021/03/14 02:50:37;;;;;;;6.50;3.40;;;;;;;4.68;75.11;98694.19;5056050;28;20232;-76
2021/03/14 02:53:04;;;;;;;4.53;2.93;;;;;;;4.65;75.43;98699.41;5049113;28;20221;-75
2021/03/14 02:55:31;;;;;;;5.43;2.93;;;;;;;4.66;75.82;98712.31;5053117;28;20221;-74
2021/03/14 02:57:58;;;;;;;5.17;3.23;;;;;;;4.64;75.79;98701.16;5056319;28;20202;-76
2021/03/14 03:00:27;;;;;;;5.17;3.37;;;;;;;4.75;73.98;98714.66;5052234;28;20209;-74
2021/03/14 03:02:56;;;;;;;7.07;3.20;;;;;;;4.72;74.76;98716.50;5052658;28;20232;-74
2021/03/14 03:05:23;;;;;;;4.83;3.00;;;;;;;4.66;74.99;98726.94;5052991;28;20210;-75
2021/03/14 03:07:52;;;;;;;5.47;2.97;;;;;;;4.69;74.76;98717.38;5052342;28;20536;-75
2021/03/14 03:10:19;;;;;;;6.37;3.00;;;;;;;4.67;75.78;98739.00;5052114;28;20265;-76
2021/03/14 03:12:49;;;;;;;6.33;3.47;;;;;;;4.65;75.18;98745.94;5052170;28;20583;-75
2021/03/14 03:15:18;;;;;;;4.90;2.77;;;;;;;4.62;76.23;98752.03;5052571;28;20201;-75
2021/03/14 03:17:44;;;;;;;6.27;2.83;;;;;;;4.64;76.32;98763.19;5052395;28;20206;-75
2021/03/14 03:20:12;;;;;;;5.57;3.03;;;;;;;4.63;76.12;98756.28;5052452;28;20193;-75
2021/03/14 03:22:38;;;;;;;3.83;3.10;;;;;;;4.64;75.85;98757.13;5050956;28;20264;-76
2021/03/14 03:25:05;;;;;;;3.87;2.60;;;;;;;4.59;76.05;98767.59;5052595;28;20197;-75
2021/03/14 03:27:33;;;;;;;5.27;2.90;;;;;;;4.59;75.66;98765.00;5050887;28;20288;-75
2021/03/14 03:29:59;;;;;;;6.57;2.50;;;;;;;4.60;75.69;98769.31;5046504;28;20228;-75
2021/03/14 03:32:25;;;;;;;6.13;2.83;;;;;;;4.61;76.32;98771.00;5050364;28;20226;-76
2021/03/14 03:34:51;;;;;;;7.10;3.20;;;;;;;4.62;76.36;98788.22;5052282;28;20699;-75
2021/03/14 03:37:18;;;;;;;3.77;2.53;;;;;;;4.57;75.87;98811.53;5049676;28;20714;-76
2021/03/14 03:39:44;;;;;;;4.00;2.40;;;;;;;4.67;75.59;98790.69;5052202;28;20189;-75
2021/03/14 03:42:15;;;;;;;9.33;2.67;;;;;;;4.64;76.07;98799.34;5050588;28;20613;-75
2021/03/14 03:44:41;;;;;;;5.53;2.93;;;;;;;4.66;75.84;98802.75;5051959;28;20206;-76
2021/03/14 03:47:11;;;;;;;5.30;3.17;;;;;;;4.66;76.20;98815.69;5049041;28;20224;-76
2021/03/14 03:49:39;;;;;;;5.90;2.53;;;;;;;4.62;76.50;98801.13;5051473;28;20273;-75
2021/03/14 03:52:06;;;;;;;5.37;2.63;;;;;;;4.63;76.79;98812.31;5051407;28;20224;-75
2021/03/14 03:54:35;;;;;;;4.10;2.37;;;;;;;4.60;76.64;98826.16;5052184;28;20212;-75
2021/03/14 03:57:02;;;;;;;3.30;2.27;;;;;;;4.54;77.20;98839.19;5051254;28;20202;-75
2021/03/14 03:59:31;;;;;;;4.93;2.63;;;;;;;4.52;77.77;98835.75;5051820;28;20715;-75
2021/03/14 04:01:58;;;;;;;4.00;2.80;;;;;;;4.45;78.30;98855.72;5047534;28;20232;-75
2021/03/14 04:04:25;;;;;;;6.60;3.03;;;;;;;4.44;78.47;98854.03;5051819;28;20224;-74
2021/03/14 04:06:52;;;;;;;6.97;3.20;;;;;;;4.43;78.78;98861.81;5047439;28;20670;-75
2021/03/14 04:09:19;;;;;;;7.83;3.10;;;;;;;4.34;79.59;98862.81;5051576;28;20228;-75
2021/03/14 04:11:47;;;;;;;7.27;3.17;;;;;;;4.33;80.07;98867.13;5050971;28;20225;-74
2021/03/14 04:14:14;;;;;;;6.63;3.20;;;;;;;4.33;80.14;98869.72;5051461;28;20206;-75
2021/03/14 04:16:41;;;;;;;8.83;3.67;;;;;;;4.32;80.08;98875.78;5047444;28;20206;-75
2021/03/14 04:19:11;;;;;;;6.67;3.10;;;;;;;4.31;80.33;98883.56;5050836;28;20603;-75
2021/03/14 04:21:39;;;;;;;4.63;3.17;;;;;;;4.25;81.01;98886.25;5047537;28;20226;-75
2021/03/14 04:24:07;;;;;;;7.50;3.40;;;;;;;4.22;82.43;98896.63;5051504;28;20558;-75
2021/03/14 04:26:34;;;;;;;4.97;3.40;;;;;;;4.21;82.18;98900.94;5047430;28;20206;-74
2021/03/14 04:29:02;;;;;;;4.13;3.73;;;;;;;4.19;82.36;98913.03;5049533;28;20248;-73
2021/03/14 04:31:28;;;;;;;8.53;3.20;;;;;;;4.15;82.72;98912.22;5050924;28;20225;-74
2021/03/14 04:33:55;;;;;;;8.20;3.40;;;;;;;4.09;84.31;98935.59;5051159;28;20224;-75
2021/03/14 04:36:22;;;;;;;5.70;3.00;;;;;;;4.00;84.73;98950.38;5051071;28;20198;-75
2021/03/14 04:38:48;;;;;;;3.40;2.43;;;;;;;3.61;85.26;98952.69;5051066;28;20201;-75
2021/03/14 04:41:16;;;;;;;3.80;2.07;;;;;;;3.34;86.65;98957.38;5049346;28;21000;-74
2021/03/14 04:43:43;;;;;;;2.00;1.80;;;;;;;3.20;87.06;98949.81;5048749;28;20693;-74
2021/03/14 04:46:13;;;;;;;5.87;3.00;;;;;;;3.00;88.80;98959.53;5050133;28;20593;-75
2021/03/14 04:48:39;;;;;;;5.93;2.30;;;;;;;3.10;88.26;98959.41;5048891;28;20229;-75
2021/03/14 04:51:06;;;;;;;5.03;2.60;;;;;;;3.07;89.40;98956.88;5050468;28;20697;-75
2021/03/14 04:53:33;;;;;;;4.53;3.07;;;;;;;3.23;88.80;98964.38;5050856;28;20681;-75
2021/03/14 04:56:00;;;;;;;7.17;4.00;;;;;;;3.52;88.32;98964.00;5048079;28;20228;-75
2021/03/14 04:58:27;;;;;;;7.90;4.43;;;;;;;3.69;87.56;98976.69;5051095;28;20202;-75
2021/03/14 05:00:53;;;;;;;8.37;4.23;;;;;;;3.76;86.80;98973.09;5050762;28;20204;-75
2021/03/14 05:03:22;;;;;;;6.33;4.43;;;;;;;3.75;87.69;99000.66;5046948;28;20217;-75
2021/03/14 05:05:50;;;;;;;4.53;3.90;;;;;;;3.62;87.51;98987.94;5051180;28;20203;-75
2021/03/14 05:08:18;;;;;;;6.83;4.03;;;;;;;3.54;87.61;99006.94;5048926;28;20205;-75
2021/03/14 05:10:45;;;;;;;8.77;4.37;;;;;;;3.46;88.63;99002.78;5054799;28;20225;-75
2021/03/14 05:13:12;;;;;;;5.07;3.17;;;;;;;3.35;89.30;99008.94;5053831;28;20259;-76
2021/03/14 05:15:38;;;;;;;5.30;3.97;;;;;;;3.32;89.31;99016.69;5055036;28;20206;-76
2021/03/14 05:18:09;;;;;;;7.07;4.17;;;;;;;3.28;89.87;99024.50;5054439;28;20256;-76
2021/03/14 05:20:36;;;;;;;2.90;2.60;;;;;;;3.20;89.77;99039.22;5054629;28;20203;-76
2021/03/14 05:23:02;;;;;;;6.00;3.93;;;;;;;3.06;90.75;99032.50;5054391;28;20219;-76
2021/03/14 05:25:28;;;;;;;8.67;5.40;;;;;;;3.07;91.14;99036.78;5054761;28;20206;-74
2021/03/14 05:27:55;;;;;;;6.97;4.90;;;;;;;3.03;91.53;99041.97;5054413;28;20209;-75
2021/03/14 05:30:24;;;;;;;3.63;3.10;;;;;;;3.05;90.68;99048.81;5054220;28;20221;-75
2021/03/14 05:32:51;;;;;;;1.97;1.37;;;;;;;2.77;90.39;99055.97;5054087;28;20749;-75
2021/03/14 05:35:18;;;;;;;4.03;1.30;;;;;;;2.60;90.90;99058.72;5052325;28;20657;-75
2021/03/14 05:37:46;;;;;;;1.83;1.10;;;;;;;2.62;91.14;99067.31;5052406;28;20205;-73
2021/03/14 05:40:13;;;;;;;1.57;0.80;;;;;;;2.63;90.89;99076.72;5052297;28;20200;-76
2021/03/14 05:42:40;;;;;;;1.87;1.53;;;;;;;2.53;92.17;99081.09;5078907;22;20249;-75
2021/03/14 05:45:08;;;;;;;3.33;2.00;;;;;;;2.45;91.40;99082.88;5067303;28;20208;-75
2021/03/14 05:47:34;;;;;;;3.00;1.63;;;;;;;2.47;92.49;99082.88;5068893;28;20559;-75
2021/03/14 05:49:59;;;;;;;4.07;2.27;;;;;;;2.57;91.92;99094.81;5073794;28;20216;-75
2021/03/14 05:52:27;;;;;;;5.17;3.60;;;;;;;2.53;92.48;99085.41;5078014;28;20236;-75
2021/03/14 05:54:54;;;;;;;3.87;3.30;;;;;;;2.56;93.02;99091.38;5086396;28;20678;-76
2021/03/14 05:57:20;;;;;;;4.73;3.47;;;;;;;2.64;92.90;99091.31;5082690;28;20211;-76
2021/03/14 05:59:50;;;;;;;8.90;4.70;;;;;;;2.76;92.97;99091.22;5080647;28;20193;-75
2021/03/14 06:02:18;;;;;;;8.47;4.77;;;;;;;2.82;92.16;99102.34;5076463;28;20286;-76
2021/03/14 06:04:44;;;;;;;11.37;5.67;;;;;;;2.91;92.53;99097.06;5085968;28;20204;-76
2021/03/14 06:07:10;;;;;;;6.40;4.37;;;;;;;2.99;91.60;99100.44;5077494;28;20205;-77
2021/03/14 06:09:36;;;;;;;8.33;5.33;;;;;;;3.00;91.83;99104.72;5084947;28;20235;-76
2021/03/14 06:12:04;;;;;;;6.40;4.23;;;;;;;3.05;91.33;99099.53;5078739;28;20274;-76
2021/03/14 06:14:29;;;;;;;8.33;4.77;;;;;;;3.14;91.32;99107.16;5085458;28;20206;-75
2021/03/14 06:16:58;;;;;;;6.40;4.80;;;;;;;3.20;90.13;99101.94;5079102;28;20204;-76
2021/03/14 06:19:24;;;;;;;6.27;4.53;;;;;;;3.29;90.17;99119.91;5082738;28;20219;-75
2021/03/14 06:21:50;;;;;;;10.70;5.20;;;;;;;3.36;89.48;99115.53;5079215;28;20197;-76
2021/03/14 06:24:16;;;;;;;10.30;5.30;;;;;;;3.40;89.91;99118.94;5086000;28;20304;-76
2021/03/14 06:26:43;;;;;;;12.93;5.40;;;;;;;3.43;89.73;99121.47;5080772;28;20200;-76
2021/03/14 06:29:27;;;;;;;13.37;5.97;;;;;;;3.54;89.25;99132.53;5083957;28;20581;-76
2021/03/14 06:31:55;;;;;;;6.87;5.57;;;;;;;3.64;88.42;99138.44;5078845;28;20279;-76
2021/03/14 06:34:25;;;;;;;10.00;4.93;;;;;;;3.68;87.79;99148.69;5085922;28;20223;-76
2021/03/14 06:36:51;;;;;;;8.00;5.43;;;;;;;3.72;87.85;99150.34;5078762;28;20596;-76
2021/03/14 06:39:22;;;;;;;11.80;5.77;;;;;;;3.75;88.10;99162.38;5085921;28;20196;-76
2021/03/14 06:41:48;;;;;;;9.70;4.87;;;;;;;3.78;87.58;99167.50;5079848;28;20274;-77
2021/03/14 06:44:22;;;;;;;8.77;4.60;;;;;;;3.85;86.56;99171.72;5082216;28;20200;-77
2021/03/14 06:46:49;;;;;;;6.83;5.00;;;;;;;3.84;87.28;99188.06;5080387;28;20209;-77
2021/03/14 06:49:17;;;;;;;7.93;4.73;;;;;;;3.88;86.76;99182.00;5084617;28;20573;-77
2021/03/14 06:51:44;;;;;;;7.37;4.87;;;;;;;3.91;86.24;99199.19;5075799;28;20202;-77
2021/03/14 06:54:28;;;;;;;5.27;4.43;;;;;;;3.90;86.02;99200.06;5075161;28;20585;-76
2021/03/14 06:57:05;;;;;;;8.10;4.70;;;;;;;3.91;86.10;99201.78;5073678;28;20212;-76
2021/03/14 06:59:33;;;;;;;7.63;4.80;;;;;;;3.91;86.14;99207.78;5076825;28;20205;-75
2021/03/14 07:02:02;;;;;;;6.47;4.63;;;;;;;3.88;85.65;99210.38;5073844;28;20742;-76
2021/03/14 07:04:36;;;;;;;7.07;4.50;;;;;;;3.88;85.76;99220.72;5073953;28;20197;-76
2021/03/14 07:07:02;;;;;;;6.03;3.40;;;;;;;3.96;84.63;99228.38;5071627;28;20212;-76
2021/03/14 07:09:28;;;;;;;11.37;4.10;;;;;;;3.98;84.45;99232.66;5075607;28;20221;-76
2021/03/14 07:11:54;;;;;;;5.37;3.50;;;;;;;4.00;84.79;99240.38;5074106;28;20263;-79
2021/03/14 07:14:21;;;;;;;9.60;3.87;;;;;;;3.98;84.18;99247.28;5074129;28;20283;-77
2021/03/14 07:16:48;;;;;;;10.33;4.23;;;;;;;3.99;85.13;99254.16;5074601;28;20229;-78
2021/03/14 07:19:17;;;;;;;6.80;3.80;;;;;;;4.01;84.32;99256.75;5070654;28;20855;-77
2021/03/14 07:21:43;;;;;;;14.37;5.40;;;;;;;4.06;84.63;99265.28;5074767;28;20197;-78
2021/03/14 07:24:13;;;;;;;8.07;4.07;;;;;;;4.07;84.59;99269.59;5075905;28;20205;-78
2021/03/14 07:26:41;;;;;;;9.70;4.10;;;;;;;4.11;84.38;99290.19;5076552;28;20209;-78
2021/03/14 07:29:08;;;;;;;9.80;4.20;;;;;;;4.10;83.67;99301.41;5072564;28;20201;-77
2021/03/14 07:31:35;;;;;;;7.60;5.07;;;;;;;4.12;83.37;99291.91;5072762;28;20665;-77
2021/03/14 07:34:02;;;;;;;6.43;4.30;;;;;;;4.15;84.03;99296.16;5071617;28;20232;-77
2021/03/14 07:36:28;;;;;;;5.50;4.47;;;;;;;4.14;83.80;99309.94;5075847;28;20336;-78
2021/03/14 07:38:56;;;;;;;7.20;4.20;;;;;;;4.12;84.05;99312.56;5073024;28;20616;-78
2021/03/14 07:41:22;;;;;;;9.77;4.80;;;;;;;4.16;83.35;99318.53;5076551;28;20231;-77
2021/03/14 07:43:48;;;;;;;7.50;4.60;;;;;;;4.19;82.72;99321.09;5074870;28;20240;-78
2021/03/14 07:46:17;;;;;;;7.97;4.47;;;;;;;4.20;83.16;99324.50;5077452;28;20204;-78
2021/03/14 07:48:43;;;;;;;6.97;5.00;;;;;;;4.22;82.69;99330.50;5074813;28;20205;-77
2021/03/14 07:51:11;;;;;;;7.10;4.53;;;;;;;4.23;83.23;99340.84;5075123;28;20280;-78
2021/03/14 07:53:38;;;;;;;6.70;4.60;;;;;;;4.24;83.12;99349.44;5073955;28;20216;-78
2021/03/14 07:56:05;;;;;;;8.93;4.50;;;;;;;4.26;83.80;99351.16;5078254;28;20246;-78
2021/03/14 07:58:33;;;;;;;6.17;3.90;;;;;;;4.23;83.01;99356.34;5076896;28;20569;-78
2021/03/14 08:01:21;;;;;;;6.10;3.87;;;;;;;4.23;82.69;99370.97;5076547;28;20562;-78
2021/03/14 08:03:47;;;;;;;6.07;3.93;;;;;;;4.26;82.34;99369.22;5076044;28;20216;-78
2021/03/14 08:06:12;;;;;;;5.63;4.07;;;;;;;4.29;82.21;99366.59;5077670;28;20725;-79
2021/03/14 08:08:47;;;;;;;7.07;4.13;;;;;;;4.31;81.87;99384.66;5077722;28;20201;-78
2021/03/14 08:11:25;;;;;;;5.57;3.40;;;;;;;4.33;82.01;99386.34;5082019;28;20263;-78
2021/03/14 08:13:51;;;;;;;5.37;3.33;;;;;;;4.35;81.64;99391.50;5073284;28;20606;-77
2021/03/14 08:16:17;;;;;;;6.43;3.90;;;;;;;4.35;82.16;99396.69;5073709;28;20204;-77
2021/03/14 08:18:45;;;;;;;6.20;4.00;;;;;;;4.36;81.24;99411.28;5075256;28;20208;-77
2021/03/14 08:21:38;;;;;;;4.37;3.90;;;;;;;4.41;81.76;99404.38;5074732;28;20690;-76
2021/03/14 08:24:05;;;;;;;5.57;4.60;;;;;;;4.49;82.30;99412.03;5075984;28;20221;-77
2021/03/14 08:26:33;;;;;;;4.97;4.00;;;;;;;4.51;80.16;99411.13;5074446;28;20278;-77
2021/03/14 08:29:00;;;;;;;8.67;3.97;;;;;;;4.59;81.16;99421.41;5076253;28;20659;-76
2021/03/14 08:31:43;;;;;;;6.97;4.53;;;;;;;4.68;81.01;99421.31;5074264;28;20776;-77
2021/03/14 08:34:10;;;;;;;6.23;3.83;;;;;;;4.73;80.43;99423.81;5076775;28;20693;-77
2021/03/14 08:36:38;;;;;;;3.90;3.50;;;;;;;4.76;79.30;99429.81;5074557;28;20573;-76
2021/03/14 08:39:07;;;;;;;5.80;3.57;;;;;;;4.83;79.36;99424.56;5077209;28;20200;-77
2021/03/14 08:41:37;;;;;;;4.20;3.20;;;;;;;4.83;79.28;99432.34;5075093;28;20242;-78
2021/03/14 08:44:09;;;;;;;7.73;3.40;;;;;;;4.85;78.54;99448.69;5074276;28;20238;-78
2021/03/14 08:47:06;;;;;;;3.97;3.60;;;;;;;4.87;79.02;99452.94;5076726;28;20206;-77
2021/03/14 08:49:38;;;;;;;3.77;3.33;;;;;;;4.92;79.49;99451.19;5066631;28;20229;-77
2021/03/14 08:52:06;;;;;;;5.33;3.30;;;;;;;5.03;80.09;99455.34;5073370;28;20229;-77
2021/03/14 08:54:34;;;;;;;4.83;3.50;;;;;;;5.18;79.90;99452.59;5079175;28;20211;-77
2021/03/14 08:57:03;;;;;;;5.77;3.40;;;;;;;5.24;78.79;99457.69;5067635;28;20741;-77
2021/03/14 08:59:29;;;;;;;3.67;3.03;;;;;;;5.17;77.30;99463.78;5071421;28;20207;-77
2021/03/14 09:01:57;;;;;;;5.83;2.93;;;;;;;5.23;78.38;99470.63;5070324;28;20622;-77
2021/03/14 09:04:26;;;;;;;4.37;3.03;;;;;;;5.30;78.00;99462.78;5063949;28;20203;-77
2021/03/14 09:06:52;;;;;;;4.60;3.30;;;;;;;5.39;78.82;99472.13;5075982;28;20593;-77
2021/03/14 09:09:20;;;;;;;4.77;3.20;;;;;;;5.42;78.76;99479.00;5065642;28;20225;-77
2021/03/14 09:11:48;;;;;;;3.77;2.57;;;;;;;5.44;77.92;99470.34;5070383;28;20208;-77
2021/03/14 09:14:29;;;;;;;4.67;3.23;;;;;;;5.40;77.27;99473.84;5066885;28;20669;-77
2021/03/14 09:16:57;;;;;;;6.53;3.60;;;;;;;5.44;77.89;99477.25;5071031;28;20207;-77
2021/03/14 09:19:31;;;;;;;5.50;3.13;;;;;;;5.36;78.15;99485.97;5068839;28;20787;-76
2021/03/14 09:21:59;;;;;;;4.67;3.63;;;;;;;5.39;78.57;99487.66;5076261;28;20197;-77
2021/03/14 09:24:28;;;;;;;3.63;2.70;;;;;;;5.35;78.35;99480.81;5069778;28;20252;-75
2021/03/14 09:26:57;;;;;;;3.30;2.63;;;;;;;5.32;77.84;99497.25;5074499;28;20208;-76
2021/03/14 09:29:40;;;;;;;4.30;3.57;;;;;;;5.33;77.42;99498.97;5076602;28;20196;-77
2021/03/14 09:32:19;;;;;;;2.80;2.60;;;;;;;5.45;77.17;99515.19;5082620;28;20227;-77
2021/03/14 09:34:45;;;;;;;3.97;2.50;;;;;;;5.47;76.92;99516.03;5075885;28;20204;-77
2021/03/14 09:37:12;;;;;;;4.03;2.80;;;;;;;5.54;76.98;99515.94;5074220;28;20210;-77
2021/03/14 09:39:38;;;;;;;4.37;3.17;;;;;;;5.41;76.84;99524.75;5070881;28;20277;-76
2021/03/14 09:42:05;;;;;;;4.30;2.83;;;;;;;5.44;76.91;99539.38;5077504;28;20258;-76
2021/03/14 09:44:31;;;;;;;6.07;2.80;;;;;;;5.53;76.49;99515.94;5070557;28;20767;-76
2021/03/14 09:46:59;;;;;;;3.47;2.70;;;;;;;5.42;76.09;99529.03;5069995;28;20207;-76
2021/03/14 09:49:25;;;;;;;3.43;2.43;;;;;;;5.43;75.69;99533.34;5067803;28;20228;-76
2021/03/14 09:51:53;;;;;;;5.70;2.77;;;;;;;5.55;76.70;99534.94;5070854;28;20286;-76
2021/03/14 09:54:19;;;;;;;4.97;2.60;;;;;;;5.69;76.56;99526.94;5069404;28;20210;-76
2021/03/14 09:56:52;;;;;;;6.40;2.83;;;;;;;5.62;74.79;99530.50;5070738;28;20193;-76
2021/03/14 09:59:21;;;;;;;3.07;2.70;;;;;;;5.74;76.01;99531.19;5066548;28;20214;-76
2021/03/14 10:01:48;;;;;;;4.57;2.90;;;;;;;5.88;76.13;99538.75;5074824;28;20214;-77
2021/03/14 10:04:14;;;;;;;4.57;2.93;;;;;;;5.87;75.28;99543.97;5077771;28;20202;-76
2021/03/14 10:06:40;;;;;;;3.80;2.10;;;;;;;5.85;74.81;99544.00;5070608;28;20200;-76
2021/03/14 10:09:09;;;;;;;2.73;2.30;;;;;;;5.93;74.80;99552.50;5067334;28;20213;-76
2021/03/14 10:11:36;;;;;;;4.00;3.03;;;;;;;6.06;73.35;99558.38;5072885;28;20309;-79
2021/03/14 10:14:02;;;;;;;2.78;2.40;;;;;;;6.10;72.36;99565.22;5070346;28;20430;-77
2021/03/14 10:16:29;;;;;;;4.73;2.47;;;;;;;6.15;72.71;99557.41;5074940;28;20204;-76
2021/03/14 10:18:58;;;;;;;6.20;2.30;;;;;;;6.23;73.88;99565.91;5078002;28;20601;-78
2021/03/14 10:21:26;;;;;;;4.67;2.20;;;;;;;6.28;73.74;99571.91;5073426;28;20196;-76
2021/03/14 10:24:13;;;;;;;3.10;2.40;;;;;;;6.40;73.00;99570.81;5080603;28;20223;-76
2021/03/14 10:26:51;;;;;;;3.93;2.17;;;;;;;6.23;72.72;99565.06;5080293;28;20284;-76
2021/03/14 10:29:17;;;;;;;3.87;2.37;;;;;;;6.29;72.00;99570.16;5085043;28;20203;-76
2021/03/14 10:31:43;;;;;;;7.23;2.53;;;;;;;6.35;71.89;99575.25;5066880;28;20234;-75
2021/03/14 10:34:09;;;;;;;3.47;2.23;;;;;;;6.30;70.81;99572.72;5074643;28;20227;-77
2021/03/14 10:36:35;;;;;;;4.17;2.10;;;;;;;6.35;72.47;99576.09;5082904;28;20197;-76
2021/03/14 10:39:02;;;;;;;5.67;2.00;;;;;;;6.52;72.20;99586.22;5084434;28;20232;-76
2021/03/14 10:41:28;;;;;;;3.47;1.77;;;;;;;6.56;69.08;99584.41;5085300;28;20200;-76
2021/03/14 10:43:58;;;;;;;2.90;1.97;;;;;;;6.51;69.32;99583.63;5076266;28;20322;-76
2021/03/14 10:46:38;;;;;;;4.07;2.37;;;;;;;6.46;70.26;99588.03;5073482;28;20200;-76
2021/03/14 10:49:05;;;;;;;3.50;2.20;;;;;;;6.47;69.29;99587.16;5073692;28;20256;-77
2021/03/14 10:51:32;;;;;;;4.97;2.77;;;;;;;6.51;69.45;99594.84;5070187;28;20272;-76
2021/03/14 10:54:09;;;;;;;2.47;2.10;;;;;;;6.40;68.38;99596.75;5075023;28;20767;-76
2021/03/14 10:56:38;;;;;;;4.90;2.17;;;;;;;6.42;69.64;99586.38;5074775;28;20275;-77
2021/03/14 10:59:05;;;;;;;3.00;2.43;;;;;;;6.49;69.96;99595.75;5072351;28;20204;-77
2021/03/14 11:01:36;;;;;;;4.33;2.80;;;;;;;6.19;68.76;99599.69;5074407;28;20221;-76
2021/03/14 11:04:04;;;;;;;3.73;2.70;;;;;;;6.24;70.38;99608.22;5073263;28;20222;-77
2021/03/14 11:06:31;;;;;;;3.93;2.30;;;;;;;6.12;70.74;99609.25;5074181;28;20208;-77
2021/03/14 11:09:02;;;;;;;2.57;2.33;;;;;;;6.23;70.96;99615.16;5070703;28;20811;-77
2021/03/14 11:11:39;;;;;;;3.60;2.47;;;;;;;6.23;70.21;99617.75;5074381;28;20272;-76
2021/03/14 11:14:29;;;;;;;3.00;2.30;;;;;;;6.16;69.47;99622.19;5073015;28;20197;-77
2021/03/14 11:17:06;;;;;;;3.87;3.17;;;;;;;6.30;69.73;99618.50;5074077;28;20203;-78
2021/03/14 11:19:32;;;;;;;3.33;2.40;;;;;;;6.37;69.95;99622.72;5086191;28;20201;-77
2021/03/14 11:21:58;;;;;;;4.00;2.63;;;;;;;6.43;68.66;99624.38;5076982;28;20200;-76
2021/03/14 11:24:24;;;;;;;3.50;2.53;;;;;;;6.47;69.78;99620.84;5083905;28;20570;-77
2021/03/14 11:26:50;;;;;;;2.20;2.00;;;;;;;6.39;68.53;99620.97;5083665;28;20584;-79
2021/03/14 11:29:16;;;;;;;2.80;2.53;;;;;;;6.47;68.88;99620.84;5087757;28;20210;-77
2021/03/14 11:31:43;;;;;;;3.07;1.93;;;;;;;6.51;68.42;99618.19;5077760;28;20234;-77
2021/03/14 11:34:09;;;;;;;4.03;2.13;;;;;;;6.54;68.79;99618.16;5067639;28;20207;-77
2021/03/14 11:36:34;;;;;;;3.40;1.90;;;;;;;6.68;68.49;99617.06;5070873;28;20631;-76
2021/03/14 11:39:00;;;;;;;2.60;2.00;;;;;;;6.90;66.53;99622.75;5076374;28;20206;-77
2021/03/14 11:41:26;;;;;;;2.10;1.87;;;;;;;6.92;66.31;99626.19;5070837;28;20229;-76
2021/03/14 11:43:52;;;;;;;2.40;1.80;;;;;;;6.84;66.74;99635.81;5071061;28;20334;-76
2021/03/14 11:46:18;;;;;;;1.90;1.70;;;;;;;6.80;66.69;99642.81;5071727;28;20679;-76